Terminal Aerodrome Forecast
Issued by NWS

Home | Current Version | Previous Version | Text Only | Print | Product List | Glossary On
Versions: 1 2 3 4 5 6 7 8 9 10 11 12 13 14 15 16 17 18 19
000
FTUS43 KLSX 230520
TAFUIN
TAF
KUIN 230520Z 2306/2406 06010KT P6SM BKN070
     FM231800 04010G17KT P6SM BKN120
     FM240400 06007KT P6SM BKN120=

USA.gov is the U.S. government's official web portal to all federal, state and local government web resources and services.